sensor_id;sensor_type;location;lat;lon;timestamp;P1;durP1;ratioP1;P2;durP2;ratioP2
16510;SDS011;8368;48.772;8.754;2024-03-06T00:02:18;2.00;;;1.90;;
16510;SDS011;8368;48.772;8.754;2024-03-06T00:04:43;2.80;;;1.70;;
16510;SDS011;8368;48.772;8.754;2024-03-06T00:07:09;1.93;;;1.80;;
16510;SDS011;8368;48.772;8.754;2024-03-06T00:09:35;2.03;;;1.83;;
16510;SDS011;8368;48.772;8.754;2024-03-06T00:12:01;1.67;;;1.60;;
16510;SDS011;8368;48.772;8.754;2024-03-06T00:14:27;1.83;;;1.73;;
16510;SDS011;8368;48.772;8.754;2024-03-06T00:16:53;1.93;;;1.83;;
16510;SDS011;8368;48.772;8.754;2024-03-06T00:19:20;1.90;;;1.80;;
16510;SDS011;8368;48.772;8.754;2024-03-06T00:21:46;2.07;;;1.90;;
16510;SDS011;8368;48.772;8.754;2024-03-06T00:24:12;1.90;;;1.80;;
16510;SDS011;8368;48.772;8.754;2024-03-06T00:26:42;2.53;;;1.93;;
16510;SDS011;8368;48.772;8.754;2024-03-06T00:29:09;2.27;;;2.00;;
16510;SDS011;8368;48.772;8.754;2024-03-06T00:31:35;3.77;;;2.00;;
16510;SDS011;8368;48.772;8.754;2024-03-06T00:34:01;2.10;;;2.00;;
16510;SDS011;8368;48.772;8.754;2024-03-06T00:36:27;3.43;;;2.20;;
16510;SDS011;8368;48.772;8.754;2024-03-06T00:38:53;2.17;;;2.00;;
16510;SDS011;8368;48.772;8.754;2024-03-06T00:41:18;2.73;;;2.03;;
16510;SDS011;8368;48.772;8.754;2024-03-06T00:43:44;2.53;;;2.13;;
16510;SDS011;8368;48.772;8.754;2024-03-06T00:46:10;3.10;;;2.03;;
16510;SDS011;8368;48.772;8.754;2024-03-06T00:48:36;2.50;;;2.30;;
16510;SDS011;8368;48.772;8.754;2024-03-06T00:51:03;4.33;;;2.03;;
16510;SDS011;8368;48.772;8.754;2024-03-06T00:53:30;2.13;;;2.03;;
16510;SDS011;8368;48.772;8.754;2024-03-06T00:55:55;2.10;;;1.93;;
16510;SDS011;8368;48.772;8.754;2024-03-06T00:58:21;6.73;;;2.70;;
16510;SDS011;8368;48.772;8.754;2024-03-06T01:00:46;2.43;;;2.10;;
16510;SDS011;8368;48.772;8.754;2024-03-06T01:03:12;3.40;;;1.90;;
16510;SDS011;8368;48.772;8.754;2024-03-06T01:05:37;1.93;;;1.87;;
16510;SDS011;8368;48.772;8.754;2024-03-06T01:08:03;2.23;;;2.10;;
16510;SDS011;8368;48.772;8.754;2024-03-06T01:10:29;2.50;;;1.83;;
16510;SDS011;8368;48.772;8.754;2024-03-06T01:12:54;2.07;;;2.00;;
16510;SDS011;8368;48.772;8.754;2024-03-06T01:15:20;3.30;;;2.23;;
16510;SDS011;8368;48.772;8.754;2024-03-06T01:17:45;1.83;;;1.73;;
16510;SDS011;8368;48.772;8.754;2024-03-06T01:20:11;1.87;;;1.70;;
16510;SDS011;8368;48.772;8.754;2024-03-06T01:22:37;2.10;;;1.90;;
16510;SDS011;8368;48.772;8.754;2024-03-06T01:25:03;2.23;;;2.10;;
16510;SDS011;8368;48.772;8.754;2024-03-06T01:27:29;2.10;;;2.00;;
16510;SDS011;8368;48.772;8.754;2024-03-06T01:29:55;2.03;;;1.80;;
16510;SDS011;8368;48.772;8.754;2024-03-06T01:32:21;4.57;;;2.20;;
16510;SDS011;8368;48.772;8.754;2024-03-06T01:34:46;2.70;;;2.20;;
16510;SDS011;8368;48.772;8.754;2024-03-06T01:37:12;1.57;;;1.57;;
16510;SDS011;8368;48.772;8.754;2024-03-06T01:39:37;2.20;;;1.60;;
16510;SDS011;8368;48.772;8.754;2024-03-06T01:42:03;1.67;;;1.33;;
16510;SDS011;8368;48.772;8.754;2024-03-06T01:44:28;1.10;;;1.00;;
16510;SDS011;8368;48.772;8.754;2024-03-06T01:46:54;1.17;;;1.10;;
16510;SDS011;8368;48.772;8.754;2024-03-06T01:49:20;1.37;;;1.27;;
16510;SDS011;8368;48.772;8.754;2024-03-06T01:51:51;2.17;;;1.50;;
16510;SDS011;8368;48.772;8.754;2024-03-06T01:54:19;2.10;;;1.53;;
16510;SDS011;8368;48.772;8.754;2024-03-06T01:56:46;2.47;;;2.00;;
16510;SDS011;8368;48.772;8.754;2024-03-06T01:59:13;3.40;;;1.97;;
16510;SDS011;8368;48.772;8.754;2024-03-06T02:01:41;2.20;;;1.90;;
16510;SDS011;8368;48.772;8.754;2024-03-06T02:04:08;3.03;;;2.47;;
16510;SDS011;8368;48.772;8.754;2024-03-06T02:06:37;5.03;;;2.43;;
16510;SDS011;8368;48.772;8.754;2024-03-06T02:09:07;2.83;;;2.63;;
16510;SDS011;8368;48.772;8.754;2024-03-06T02:11:34;3.80;;;2.37;;
16510;SDS011;8368;48.772;8.754;2024-03-06T02:14:00;2.93;;;2.57;;
16510;SDS011;8368;48.772;8.754;2024-03-06T02:16:25;3.27;;;2.57;;
16510;SDS011;8368;48.772;8.754;2024-03-06T02:18:55;3.13;;;2.33;;
16510;SDS011;8368;48.772;8.754;2024-03-06T02:21:22;3.80;;;2.07;;
16510;SDS011;8368;48.772;8.754;2024-03-06T02:23:48;6.77;;;2.47;;
16510;SDS011;8368;48.772;8.754;2024-03-06T02:26:16;5.23;;;2.53;;
16510;SDS011;8368;48.772;8.754;2024-03-06T02:28:48;2.47;;;2.27;;
16510;SDS011;8368;48.772;8.754;2024-03-06T02:31:15;5.37;;;2.40;;
16510;SDS011;8368;48.772;8.754;2024-03-06T02:33:41;3.53;;;2.37;;
16510;SDS011;8368;48.772;8.754;2024-03-06T02:36:07;4.73;;;2.50;;
16510;SDS011;8368;48.772;8.754;2024-03-06T02:38:32;4.70;;;2.77;;
16510;SDS011;8368;48.772;8.754;2024-03-06T02:40:58;3.10;;;2.17;;
16510;SDS011;8368;48.772;8.754;2024-03-06T02:43:24;3.53;;;2.70;;
16510;SDS011;8368;48.772;8.754;2024-03-06T02:45:49;3.20;;;2.83;;
16510;SDS011;8368;48.772;8.754;2024-03-06T02:48:15;2.73;;;2.53;;
16510;SDS011;8368;48.772;8.754;2024-03-06T02:50:41;4.87;;;2.80;;
16510;SDS011;8368;48.772;8.754;2024-03-06T02:53:06;2.27;;;2.07;;
16510;SDS011;8368;48.772;8.754;2024-03-06T02:55:32;2.30;;;2.20;;
16510;SDS011;8368;48.772;8.754;2024-03-06T02:58:00;2.67;;;2.47;;
16510;SDS011;8368;48.772;8.754;2024-03-06T03:00:27;3.10;;;2.80;;
16510;SDS011;8368;48.772;8.754;2024-03-06T03:02:53;4.07;;;2.47;;
16510;SDS011;8368;48.772;8.754;2024-03-06T03:05:18;3.30;;;2.53;;
16510;SDS011;8368;48.772;8.754;2024-03-06T03:07:44;3.57;;;2.97;;
16510;SDS011;8368;48.772;8.754;2024-03-06T03:10:09;4.20;;;2.70;;
16510;SDS011;8368;48.772;8.754;2024-03-06T03:12:35;4.93;;;2.97;;
16510;SDS011;8368;48.772;8.754;2024-03-06T03:15:03;3.40;;;2.70;;
16510;SDS011;8368;48.772;8.754;2024-03-06T03:17:29;3.23;;;3.00;;
16510;SDS011;8368;48.772;8.754;2024-03-06T03:19:55;4.83;;;3.13;;
16510;SDS011;8368;48.772;8.754;2024-03-06T03:22:20;3.50;;;3.03;;
16510;SDS011;8368;48.772;8.754;2024-03-06T03:24:46;4.43;;;3.07;;
16510;SDS011;8368;48.772;8.754;2024-03-06T03:27:12;4.10;;;3.10;;
16510;SDS011;8368;48.772;8.754;2024-03-06T03:29:38;3.30;;;3.00;;
16510;SDS011;8368;48.772;8.754;2024-03-06T03:32:04;4.23;;;3.60;;
16510;SDS011;8368;48.772;8.754;2024-03-06T03:34:30;3.70;;;3.23;;
16510;SDS011;8368;48.772;8.754;2024-03-06T03:36:56;4.67;;;3.63;;
16510;SDS011;8368;48.772;8.754;2024-03-06T03:39:21;4.10;;;3.10;;
16510;SDS011;8368;48.772;8.754;2024-03-06T03:41:49;3.77;;;3.27;;
16510;SDS011;8368;48.772;8.754;2024-03-06T03:44:15;4.67;;;3.47;;
16510;SDS011;8368;48.772;8.754;2024-03-06T03:46:42;4.67;;;3.37;;
16510;SDS011;8368;48.772;8.754;2024-03-06T03:49:08;3.57;;;3.27;;
16510;SDS011;8368;48.772;8.754;2024-03-06T03:51:37;3.30;;;3.00;;
16510;SDS011;8368;48.772;8.754;2024-03-06T03:54:04;6.13;;;3.23;;
16510;SDS011;8368;48.772;8.754;2024-03-06T03:56:30;3.83;;;3.17;;
16510;SDS011;8368;48.772;8.754;2024-03-06T03:58:56;3.30;;;3.00;;
16510;SDS011;8368;48.772;8.754;2024-03-06T04:01:25;4.20;;;3.73;;
16510;SDS011;8368;48.772;8.754;2024-03-06T04:03:51;5.53;;;3.30;;
16510;SDS011;8368;48.772;8.754;2024-03-06T04:06:16;3.20;;;3.00;;
16510;SDS011;8368;48.772;8.754;2024-03-06T04:08:42;5.03;;;3.63;;
16510;SDS011;8368;48.772;8.754;2024-03-06T04:11:08;3.80;;;3.07;;
16510;SDS011;8368;48.772;8.754;2024-03-06T04:13:37;4.67;;;3.30;;
16510;SDS011;8368;48.772;8.754;2024-03-06T04:16:03;8.23;;;3.23;;
16510;SDS011;8368;48.772;8.754;2024-03-06T04:18:31;4.77;;;3.37;;
16510;SDS011;8368;48.772;8.754;2024-03-06T04:21:08;5.13;;;3.07;;
16510;SDS011;8368;48.772;8.754;2024-03-06T04:23:35;4.17;;;3.00;;
16510;SDS011;8368;48.772;8.754;2024-03-06T04:26:01;5.73;;;3.27;;
16510;SDS011;8368;48.772;8.754;2024-03-06T04:28:27;3.30;;;3.00;;
16510;SDS011;8368;48.772;8.754;2024-03-06T04:30:52;4.27;;;2.93;;
16510;SDS011;8368;48.772;8.754;2024-03-06T04:33:18;4.70;;;3.07;;
16510;SDS011;8368;48.772;8.754;2024-03-06T04:35:44;4.47;;;2.97;;
16510;SDS011;8368;48.772;8.754;2024-03-06T04:38:09;4.17;;;2.87;;
16510;SDS011;8368;48.772;8.754;2024-03-06T04:40:35;3.07;;;2.87;;
16510;SDS011;8368;48.772;8.754;2024-03-06T04:43:00;3.70;;;2.67;;
16510;SDS011;8368;48.772;8.754;2024-03-06T04:45:26;4.73;;;3.17;;
16510;SDS011;8368;48.772;8.754;2024-03-06T04:47:53;4.00;;;2.80;;
16510;SDS011;8368;48.772;8.754;2024-03-06T04:50:19;3.93;;;2.73;;
16510;SDS011;8368;48.772;8.754;2024-03-06T04:52:45;3.53;;;2.60;;
16510;SDS011;8368;48.772;8.754;2024-03-06T04:55:10;3.10;;;2.80;;
16510;SDS011;8368;48.772;8.754;2024-03-06T04:57:37;4.07;;;3.00;;
16510;SDS011;8368;48.772;8.754;2024-03-06T05:00:04;2.83;;;2.63;;
16510;SDS011;8368;48.772;8.754;2024-03-06T05:02:31;4.23;;;2.60;;
16510;SDS011;8368;48.772;8.754;2024-03-06T05:04:59;6.00;;;2.73;;
16510;SDS011;8368;48.772;8.754;2024-03-06T05:07:26;3.10;;;2.73;;
16510;SDS011;8368;48.772;8.754;2024-03-06T05:09:52;4.70;;;2.60;;
16510;SDS011;8368;48.772;8.754;2024-03-06T05:12:18;3.73;;;2.40;;
16510;SDS011;8368;48.772;8.754;2024-03-06T05:14:43;3.07;;;2.53;;
16510;SDS011;8368;48.772;8.754;2024-03-06T05:17:09;2.70;;;2.50;;
16510;SDS011;8368;48.772;8.754;2024-03-06T05:19:35;5.73;;;2.77;;
16510;SDS011;8368;48.772;8.754;2024-03-06T05:22:02;2.50;;;2.40;;
16510;SDS011;8368;48.772;8.754;2024-03-06T05:24:27;3.47;;;2.63;;
16510;SDS011;8368;48.772;8.754;2024-03-06T05:26:53;3.20;;;2.90;;
16510;SDS011;8368;48.772;8.754;2024-03-06T05:29:19;4.00;;;2.40;;
16510;SDS011;8368;48.772;8.754;2024-03-06T05:31:45;4.73;;;2.80;;
16510;SDS011;8368;48.772;8.754;2024-03-06T05:34:10;4.90;;;2.60;;
16510;SDS011;8368;48.772;8.754;2024-03-06T05:36:36;3.20;;;2.53;;
16510;SDS011;8368;48.772;8.754;2024-03-06T05:39:01;3.37;;;3.07;;
16510;SDS011;8368;48.772;8.754;2024-03-06T05:41:31;4.30;;;3.10;;
16510;SDS011;8368;48.772;8.754;2024-03-06T05:44:00;2.77;;;2.57;;
16510;SDS011;8368;48.772;8.754;2024-03-06T05:46:26;3.13;;;2.50;;
16510;SDS011;8368;48.772;8.754;2024-03-06T05:48:51;3.80;;;2.73;;
16510;SDS011;8368;48.772;8.754;2024-03-06T05:51:17;4.57;;;3.03;;
16510;SDS011;8368;48.772;8.754;2024-03-06T05:53:43;5.53;;;2.80;;
16510;SDS011;8368;48.772;8.754;2024-03-06T05:56:09;3.57;;;2.77;;
16510;SDS011;8368;48.772;8.754;2024-03-06T05:58:35;2.87;;;2.67;;
16510;SDS011;8368;48.772;8.754;2024-03-06T06:01:00;2.70;;;2.57;;
16510;SDS011;8368;48.772;8.754;2024-03-06T06:03:27;3.50;;;3.00;;
16510;SDS011;8368;48.772;8.754;2024-03-06T06:05:55;4.27;;;2.87;;
16510;SDS011;8368;48.772;8.754;2024-03-06T06:08:21;3.27;;;3.00;;
16510;SDS011;8368;48.772;8.754;2024-03-06T06:10:47;3.30;;;3.00;;
16510;SDS011;8368;48.772;8.754;2024-03-06T06:13:13;3.37;;;2.70;;
16510;SDS011;8368;48.772;8.754;2024-03-06T06:15:39;2.83;;;2.63;;
16510;SDS011;8368;48.772;8.754;2024-03-06T06:18:05;5.93;;;3.20;;
16510;SDS011;8368;48.772;8.754;2024-03-06T06:20:31;5.73;;;3.00;;
16510;SDS011;8368;48.772;8.754;2024-03-06T06:22:56;6.10;;;2.87;;
16510;SDS011;8368;48.772;8.754;2024-03-06T06:25:22;2.90;;;2.50;;
16510;SDS011;8368;48.772;8.754;2024-03-06T06:27:48;3.90;;;2.80;;
16510;SDS011;8368;48.772;8.754;2024-03-06T06:30:14;3.47;;;2.97;;
16510;SDS011;8368;48.772;8.754;2024-03-06T06:32:40;3.37;;;2.80;;
16510;SDS011;8368;48.772;8.754;2024-03-06T06:35:06;4.67;;;3.57;;
16510;SDS011;8368;48.772;8.754;2024-03-06T06:37:34;4.93;;;3.07;;
16510;SDS011;8368;48.772;8.754;2024-03-06T06:39:59;3.13;;;2.93;;
16510;SDS011;8368;48.772;8.754;2024-03-06T06:42:28;3.97;;;3.30;;
16510;SDS011;8368;48.772;8.754;2024-03-06T06:44:54;5.27;;;2.90;;
16510;SDS011;8368;48.772;8.754;2024-03-06T06:47:19;5.00;;;3.43;;
16510;SDS011;8368;48.772;8.754;2024-03-06T06:49:45;4.90;;;2.93;;
16510;SDS011;8368;48.772;8.754;2024-03-06T06:52:11;4.07;;;2.60;;
16510;SDS011;8368;48.772;8.754;2024-03-06T06:54:36;4.47;;;2.90;;
16510;SDS011;8368;48.772;8.754;2024-03-06T06:57:02;3.67;;;3.17;;
16510;SDS011;8368;48.772;8.754;2024-03-06T06:59:28;3.20;;;2.77;;
16510;SDS011;8368;48.772;8.754;2024-03-06T07:01:53;4.63;;;3.40;;
16510;SDS011;8368;48.772;8.754;2024-03-06T07:04:19;5.80;;;3.13;;
16510;SDS011;8368;48.772;8.754;2024-03-06T07:06:45;3.97;;;3.53;;
16510;SDS011;8368;48.772;8.754;2024-03-06T07:09:11;3.60;;;3.40;;
16510;SDS011;8368;48.772;8.754;2024-03-06T07:11:37;5.20;;;2.87;;
16510;SDS011;8368;48.772;8.754;2024-03-06T07:14:02;3.73;;;3.37;;
16510;SDS011;8368;48.772;8.754;2024-03-06T07:16:28;3.50;;;3.20;;
16510;SDS011;8368;48.772;8.754;2024-03-06T07:18:54;2.90;;;2.70;;
16510;SDS011;8368;48.772;8.754;2024-03-06T07:21:19;3.67;;;3.07;;
16510;SDS011;8368;48.772;8.754;2024-03-06T07:23:45;4.33;;;3.13;;
16510;SDS011;8368;48.772;8.754;2024-03-06T07:26:10;3.77;;;3.10;;
16510;SDS011;8368;48.772;8.754;2024-03-06T07:28:36;4.30;;;2.70;;
16510;SDS011;8368;48.772;8.754;2024-03-06T07:31:02;3.07;;;2.83;;
16510;SDS011;8368;48.772;8.754;2024-03-06T07:33:28;4.90;;;2.80;;
16510;SDS011;8368;48.772;8.754;2024-03-06T07:35:55;3.27;;;2.80;;
16510;SDS011;8368;48.772;8.754;2024-03-06T07:38:21;3.23;;;2.83;;
16510;SDS011;8368;48.772;8.754;2024-03-06T07:40:48;3.10;;;2.60;;
16510;SDS011;8368;48.772;8.754;2024-03-06T07:43:14;2.73;;;2.33;;
16510;SDS011;8368;48.772;8.754;2024-03-06T07:45:40;4.73;;;2.63;;
16510;SDS011;8368;48.772;8.754;2024-03-06T07:48:06;5.60;;;2.50;;
16510;SDS011;8368;48.772;8.754;2024-03-06T07:50:31;6.90;;;2.47;;
16510;SDS011;8368;48.772;8.754;2024-03-06T07:52:57;3.20;;;2.70;;
16510;SDS011;8368;48.772;8.754;2024-03-06T07:55:22;2.90;;;2.63;;
16510;SDS011;8368;48.772;8.754;2024-03-06T07:57:48;2.60;;;2.37;;
16510;SDS011;8368;48.772;8.754;2024-03-06T08:00:13;2.83;;;2.40;;
16510;SDS011;8368;48.772;8.754;2024-03-06T08:02:40;4.07;;;2.53;;
16510;SDS011;8368;48.772;8.754;2024-03-06T08:05:10;3.20;;;2.90;;
16510;SDS011;8368;48.772;8.754;2024-03-06T08:07:37;4.90;;;2.70;;
16510;SDS011;8368;48.772;8.754;2024-03-06T08:10:06;6.67;;;2.53;;
16510;SDS011;8368;48.772;8.754;2024-03-06T08:12:33;4.33;;;2.50;;
16510;SDS011;8368;48.772;8.754;2024-03-06T08:14:59;3.40;;;2.83;;
16510;SDS011;8368;48.772;8.754;2024-03-06T08:17:26;4.10;;;2.60;;
16510;SDS011;8368;48.772;8.754;2024-03-06T08:19:52;4.03;;;2.67;;
16510;SDS011;8368;48.772;8.754;2024-03-06T08:22:17;3.00;;;2.70;;
16510;SDS011;8368;48.772;8.754;2024-03-06T08:24:43;6.07;;;2.70;;
16510;SDS011;8368;48.772;8.754;2024-03-06T08:27:08;4.80;;;2.57;;
16510;SDS011;8368;48.772;8.754;2024-03-06T08:29:34;4.13;;;3.23;;
16510;SDS011;8368;48.772;8.754;2024-03-06T08:31:59;4.83;;;2.50;;
16510;SDS011;8368;48.772;8.754;2024-03-06T08:34:27;2.70;;;2.50;;
16510;SDS011;8368;48.772;8.754;2024-03-06T08:36:52;6.40;;;2.67;;
16510;SDS011;8368;48.772;8.754;2024-03-06T08:39:20;4.07;;;2.90;;
16510;SDS011;8368;48.772;8.754;2024-03-06T08:41:45;4.40;;;2.80;;
16510;SDS011;8368;48.772;8.754;2024-03-06T08:44:11;4.57;;;3.40;;
16510;SDS011;8368;48.772;8.754;2024-03-06T08:46:36;2.70;;;2.50;;
16510;SDS011;8368;48.772;8.754;2024-03-06T08:49:02;3.00;;;2.50;;
16510;SDS011;8368;48.772;8.754;2024-03-06T08:51:27;2.90;;;2.70;;
16510;SDS011;8368;48.772;8.754;2024-03-06T08:53:53;5.93;;;2.97;;
16510;SDS011;8368;48.772;8.754;2024-03-06T08:56:18;3.37;;;3.17;;
16510;SDS011;8368;48.772;8.754;2024-03-06T08:58:44;3.13;;;2.90;;
16510;SDS011;8368;48.772;8.754;2024-03-06T09:01:09;3.20;;;2.97;;
16510;SDS011;8368;48.772;8.754;2024-03-06T09:03:35;4.93;;;3.00;;
16510;SDS011;8368;48.772;8.754;2024-03-06T09:06:00;3.00;;;2.80;;
16510;SDS011;8368;48.772;8.754;2024-03-06T09:08:27;6.37;;;3.23;;
16510;SDS011;8368;48.772;8.754;2024-03-06T09:10:53;3.70;;;3.40;;
16510;SDS011;8368;48.772;8.754;2024-03-06T09:13:19;7.23;;;3.80;;
16510;SDS011;8368;48.772;8.754;2024-03-06T09:15:44;6.97;;;3.40;;
16510;SDS011;8368;48.772;8.754;2024-03-06T09:18:10;5.37;;;3.53;;
16510;SDS011;8368;48.772;8.754;2024-03-06T09:20:35;3.87;;;3.53;;
16510;SDS011;8368;48.772;8.754;2024-03-06T09:23:01;6.10;;;3.73;;
16510;SDS011;8368;48.772;8.754;2024-03-06T09:25:27;4.87;;;4.20;;
16510;SDS011;8368;48.772;8.754;2024-03-06T09:27:53;5.93;;;4.43;;
16510;SDS011;8368;48.772;8.754;2024-03-06T09:30:19;4.73;;;4.33;;
16510;SDS011;8368;48.772;8.754;2024-03-06T09:32:44;7.53;;;4.33;;
16510;SDS011;8368;48.772;8.754;2024-03-06T09:35:10;5.20;;;4.27;;
16510;SDS011;8368;48.772;8.754;2024-03-06T09:37:36;8.03;;;5.27;;
16510;SDS011;8368;48.772;8.754;2024-03-06T09:40:01;4.70;;;4.30;;
16510;SDS011;8368;48.772;8.754;2024-03-06T09:42:28;4.93;;;4.40;;
16510;SDS011;8368;48.772;8.754;2024-03-06T09:44:53;6.87;;;4.73;;
16510;SDS011;8368;48.772;8.754;2024-03-06T09:47:21;5.60;;;4.97;;
16510;SDS011;8368;48.772;8.754;2024-03-06T09:49:51;5.20;;;4.70;;
16510;SDS011;8368;48.772;8.754;2024-03-06T09:52:18;5.30;;;4.80;;
16510;SDS011;8368;48.772;8.754;2024-03-06T09:54:44;5.63;;;4.50;;
16510;SDS011;8368;48.772;8.754;2024-03-06T09:57:09;6.17;;;5.30;;
16510;SDS011;8368;48.772;8.754;2024-03-06T09:59:37;5.90;;;5.27;;
16510;SDS011;8368;48.772;8.754;2024-03-06T10:02:10;9.97;;;6.30;;
16510;SDS011;8368;48.772;8.754;2024-03-06T10:04:48;6.70;;;5.00;;
16510;SDS011;8368;48.772;8.754;2024-03-06T10:07:14;10.60;;;5.93;;
16510;SDS011;8368;48.772;8.754;2024-03-06T10:09:40;7.03;;;5.90;;
16510;SDS011;8368;48.772;8.754;2024-03-06T10:12:06;6.43;;;5.70;;
16510;SDS011;8368;48.772;8.754;2024-03-06T10:14:31;9.60;;;6.43;;
16510;SDS011;8368;48.772;8.754;2024-03-06T10:16:58;8.30;;;5.90;;
16510;SDS011;8368;48.772;8.754;2024-03-06T10:19:25;8.37;;;6.13;;
16510;SDS011;8368;48.772;8.754;2024-03-06T10:21:52;11.00;;;6.00;;
16510;SDS011;8368;48.772;8.754;2024-03-06T10:24:22;9.03;;;6.70;;
16510;SDS011;8368;48.772;8.754;2024-03-06T10:26:49;8.47;;;7.13;;
16510;SDS011;8368;48.772;8.754;2024-03-06T10:29:17;8.53;;;7.10;;
16510;SDS011;8368;48.772;8.754;2024-03-06T10:31:53;10.43;;;6.90;;
16510;SDS011;8368;48.772;8.754;2024-03-06T10:34:19;8.87;;;6.73;;
16510;SDS011;8368;48.772;8.754;2024-03-06T10:36:45;8.83;;;6.93;;
16510;SDS011;8368;48.772;8.754;2024-03-06T10:39:18;9.87;;;7.03;;
16510;SDS011;8368;48.772;8.754;2024-03-06T10:41:45;11.40;;;7.63;;
16510;SDS011;8368;48.772;8.754;2024-03-06T10:44:16;10.93;;;7.67;;
16510;SDS011;8368;48.772;8.754;2024-03-06T10:46:45;10.57;;;7.70;;
16510;SDS011;8368;48.772;8.754;2024-03-06T10:49:12;7.93;;;7.00;;
16510;SDS011;8368;48.772;8.754;2024-03-06T10:51:42;8.70;;;6.80;;
16510;SDS011;8368;48.772;8.754;2024-03-06T10:54:11;9.40;;;6.70;;
16510;SDS011;8368;48.772;8.754;2024-03-06T10:56:39;11.93;;;7.27;;
16510;SDS011;8368;48.772;8.754;2024-03-06T10:59:08;9.00;;;7.30;;
16510;SDS011;8368;48.772;8.754;2024-03-06T11:01:36;9.10;;;6.30;;
16510;SDS011;8368;48.772;8.754;2024-03-06T11:04:03;8.70;;;7.17;;
16510;SDS011;8368;48.772;8.754;2024-03-06T11:06:30;8.87;;;6.60;;
16510;SDS011;8368;48.772;8.754;2024-03-06T11:08:56;15.13;;;10.17;;
16510;SDS011;8368;48.772;8.754;2024-03-06T11:11:22;12.80;;;9.20;;
16510;SDS011;8368;48.772;8.754;2024-03-06T11:13:49;7.97;;;6.93;;
16510;SDS011;8368;48.772;8.754;2024-03-06T11:16:15;11.77;;;7.53;;
16510;SDS011;8368;48.772;8.754;2024-03-06T11:18:41;8.83;;;6.40;;
16510;SDS011;8368;48.772;8.754;2024-03-06T11:23:47;12.23;;;7.37;;
16510;SDS011;8368;48.772;8.754;2024-03-06T11:26:42;10.67;;;7.07;;
16510;SDS011;8368;48.772;8.754;2024-03-06T11:29:08;11.23;;;7.30;;
16510;SDS011;8368;48.772;8.754;2024-03-06T11:31:34;8.77;;;6.73;;
16510;SDS011;8368;48.772;8.754;2024-03-06T11:34:02;11.60;;;7.50;;
16510;SDS011;8368;48.772;8.754;2024-03-06T11:36:29;13.63;;;8.77;;
16510;SDS011;8368;48.772;8.754;2024-03-06T11:39:05;13.23;;;7.90;;
16510;SDS011;8368;48.772;8.754;2024-03-06T11:41:52;11.87;;;8.47;;
16510;SDS011;8368;48.772;8.754;2024-03-06T11:44:21;15.97;;;9.17;;
16510;SDS011;8368;48.772;8.754;2024-03-06T11:51:59;14.40;;;8.73;;
16510;SDS011;8368;48.772;8.754;2024-03-06T11:54:26;10.43;;;8.30;;
16510;SDS011;8368;48.772;8.754;2024-03-06T11:56:53;10.77;;;8.40;;
16510;SDS011;8368;48.772;8.754;2024-03-06T12:01:49;12.33;;;9.50;;
16510;SDS011;8368;48.772;8.754;2024-03-06T12:04:16;14.73;;;10.33;;
16510;SDS011;8368;48.772;8.754;2024-03-06T12:06:43;14.30;;;9.27;;
16510;SDS011;8368;48.772;8.754;2024-03-06T12:09:08;13.10;;;9.53;;
16510;SDS011;8368;48.772;8.754;2024-03-06T12:11:36;15.00;;;9.13;;
16510;SDS011;8368;48.772;8.754;2024-03-06T12:14:02;12.60;;;9.17;;
16510;SDS011;8368;48.772;8.754;2024-03-06T12:16:28;16.50;;;9.57;;
16510;SDS011;8368;48.772;8.754;2024-03-06T12:18:54;12.60;;;9.43;;
16510;SDS011;8368;48.772;8.754;2024-03-06T12:21:33;14.67;;;9.17;;
16510;SDS011;8368;48.772;8.754;2024-03-06T12:24:05;12.03;;;8.43;;
16510;SDS011;8368;48.772;8.754;2024-03-06T12:26:32;10.63;;;8.10;;
16510;SDS011;8368;48.772;8.754;2024-03-06T12:29:07;12.03;;;8.90;;
16510;SDS011;8368;48.772;8.754;2024-03-06T12:31:34;11.30;;;8.43;;
16510;SDS011;8368;48.772;8.754;2024-03-06T12:34:01;14.93;;;8.37;;
16510;SDS011;8368;48.772;8.754;2024-03-06T12:36:28;10.33;;;8.10;;
16510;SDS011;8368;48.772;8.754;2024-03-06T12:38:58;12.27;;;7.43;;
16510;SDS011;8368;48.772;8.754;2024-03-06T12:41:25;11.43;;;7.97;;
16510;SDS011;8368;48.772;8.754;2024-03-06T12:43:51;8.40;;;7.53;;
16510;SDS011;8368;48.772;8.754;2024-03-06T12:46:18;11.80;;;8.57;;
16510;SDS011;8368;48.772;8.754;2024-03-06T12:48:44;13.37;;;8.87;;
16510;SDS011;8368;48.772;8.754;2024-03-06T12:51:10;11.00;;;8.63;;
16510;SDS011;8368;48.772;8.754;2024-03-06T12:53:36;11.03;;;8.40;;
16510;SDS011;8368;48.772;8.754;2024-03-06T12:56:01;11.50;;;8.90;;
16510;SDS011;8368;48.772;8.754;2024-03-06T12:58:27;12.40;;;9.10;;
16510;SDS011;8368;48.772;8.754;2024-03-06T13:00:53;11.43;;;9.63;;
16510;SDS011;8368;48.772;8.754;2024-03-06T13:03:19;11.03;;;9.40;;
16510;SDS011;8368;48.772;8.754;2024-03-06T13:05:45;13.93;;;9.83;;
16510;SDS011;8368;48.772;8.754;2024-03-06T13:08:13;14.60;;;10.03;;
16510;SDS011;8368;48.772;8.754;2024-03-06T13:10:39;14.17;;;10.23;;
16510;SDS011;8368;48.772;8.754;2024-03-06T13:13:05;14.93;;;9.77;;
16510;SDS011;8368;48.772;8.754;2024-03-06T13:15:31;17.03;;;10.50;;
16510;SDS011;8368;48.772;8.754;2024-03-06T13:18:01;17.83;;;11.23;;
16510;SDS011;8368;48.772;8.754;2024-03-06T13:20:30;16.63;;;10.97;;
16510;SDS011;8368;48.772;8.754;2024-03-06T13:22:56;14.47;;;11.30;;
16510;SDS011;8368;48.772;8.754;2024-03-06T13:25:22;15.80;;;10.53;;
16510;SDS011;8368;48.772;8.754;2024-03-06T13:27:48;16.47;;;10.60;;
16510;SDS011;8368;48.772;8.754;2024-03-06T13:30:14;12.27;;;10.40;;
16510;SDS011;8368;48.772;8.754;2024-03-06T13:32:40;14.33;;;10.73;;
16510;SDS011;8368;48.772;8.754;2024-03-06T13:35:07;14.60;;;10.57;;
16510;SDS011;8368;48.772;8.754;2024-03-06T13:37:37;16.53;;;11.53;;
16510;SDS011;8368;48.772;8.754;2024-03-06T13:40:03;13.60;;;10.97;;
16510;SDS011;8368;48.772;8.754;2024-03-06T13:42:32;18.53;;;12.37;;
16510;SDS011;8368;48.772;8.754;2024-03-06T13:44:57;15.03;;;11.10;;
16510;SDS011;8368;48.772;8.754;2024-03-06T13:47:23;15.47;;;11.37;;
16510;SDS011;8368;48.772;8.754;2024-03-06T13:49:48;18.60;;;11.77;;
16510;SDS011;8368;48.772;8.754;2024-03-06T13:52:14;16.00;;;11.30;;
16510;SDS011;8368;48.772;8.754;2024-03-06T13:54:41;18.20;;;11.33;;
16510;SDS011;8368;48.772;8.754;2024-03-06T13:57:07;16.13;;;10.57;;
16510;SDS011;8368;48.772;8.754;2024-03-06T13:59:34;15.27;;;11.23;;
16510;SDS011;8368;48.772;8.754;2024-03-06T14:02:00;15.97;;;11.83;;
16510;SDS011;8368;48.772;8.754;2024-03-06T14:04:27;17.60;;;12.13;;
16510;SDS011;8368;48.772;8.754;2024-03-06T14:06:53;18.70;;;11.40;;
16510;SDS011;8368;48.772;8.754;2024-03-06T14:09:19;17.50;;;11.90;;
16510;SDS011;8368;48.772;8.754;2024-03-06T14:11:44;18.47;;;12.40;;
16510;SDS011;8368;48.772;8.754;2024-03-06T14:14:10;24.43;;;12.97;;
16510;SDS011;8368;48.772;8.754;2024-03-06T14:16:39;20.80;;;13.20;;
16510;SDS011;8368;48.772;8.754;2024-03-06T14:19:05;18.17;;;12.43;;
16510;SDS011;8368;48.772;8.754;2024-03-06T14:21:31;19.17;;;12.30;;
16510;SDS011;8368;48.772;8.754;2024-03-06T14:24:00;19.20;;;12.87;;
16510;SDS011;8368;48.772;8.754;2024-03-06T14:26:30;24.17;;;12.63;;
16510;SDS011;8368;48.772;8.754;2024-03-06T14:28:57;18.40;;;12.37;;
16510;SDS011;8368;48.772;8.754;2024-03-06T14:31:23;21.03;;;13.70;;
16510;SDS011;8368;48.772;8.754;2024-03-06T14:40:33;18.90;;;12.23;;
16510;SDS011;8368;48.772;8.754;2024-03-06T14:42:59;19.73;;;12.80;;
16510;SDS011;8368;48.772;8.754;2024-03-06T14:45:24;17.47;;;12.47;;
16510;SDS011;8368;48.772;8.754;2024-03-06T14:47:50;20.30;;;12.93;;
16510;SDS011;8368;48.772;8.754;2024-03-06T14:50:16;21.07;;;13.17;;
16510;SDS011;8368;48.772;8.754;2024-03-06T14:52:41;22.43;;;14.10;;
16510;SDS011;8368;48.772;8.754;2024-03-06T14:55:07;20.13;;;12.97;;
16510;SDS011;8368;48.772;8.754;2024-03-06T14:57:33;23.30;;;14.27;;
16510;SDS011;8368;48.772;8.754;2024-03-06T14:59:59;21.93;;;13.87;;
16510;SDS011;8368;48.772;8.754;2024-03-06T15:02:25;27.20;;;13.67;;
16510;SDS011;8368;48.772;8.754;2024-03-06T15:04:50;21.07;;;13.60;;
16510;SDS011;8368;48.772;8.754;2024-03-06T15:07:16;23.57;;;13.57;;
16510;SDS011;8368;48.772;8.754;2024-03-06T15:09:41;37.87;;;20.80;;